createdAt,value
2023-02-23T00:03:19.744Z,65.81
2023-02-23T00:08:23.761Z,65.71
2023-02-23T00:13:25.869Z,65.52
2023-02-23T00:18:30.348Z,65.27
2023-02-23T00:23:32.646Z,65.77
2023-02-23T00:28:34.826Z,65.62
2023-02-23T00:33:36.993Z,65.77
2023-02-23T00:38:40.296Z,65.68
2023-02-23T00:43:47.800Z,65.77
2023-02-23T00:48:51.243Z,65.95
2023-02-23T00:53:55.397Z,66.07
2023-02-23T00:58:57.591Z,66.08
2023-02-23T01:04:02.490Z,65.97
2023-02-23T01:09:11.102Z,65.98
2023-02-23T01:14:14.339Z,66.17
2023-02-23T01:19:17.089Z,66.11
2023-02-23T01:24:19.321Z,66.31
2023-02-23T01:29:21.607Z,66.12
2023-02-23T01:34:25.903Z,66.12
2023-02-23T01:39:28.526Z,66.13
2023-02-23T01:44:31.393Z,66.41
2023-02-23T01:49:36.759Z,66.27
2023-02-23T01:54:59.296Z,66.17
2023-02-23T02:00:01.616Z,66.18
2023-02-23T02:05:16.911Z,66.29
2023-02-23T02:10:39.169Z,66.29
2023-02-23T02:15:54.019Z,66.10
2023-02-23T02:21:18.652Z,66.40
2023-02-23T02:27:00.865Z,66.27
2023-02-23T02:32:15.273Z,66.11
2023-02-23T02:37:43.465Z,66.38
2023-02-23T02:43:11.781Z,66.21
2023-02-23T02:48:26.023Z,66.17
2023-02-23T02:53:42.462Z,66.34
2023-02-23T02:58:44.856Z,66.34
2023-02-23T03:04:06.332Z,66.16
2023-02-23T03:09:44.639Z,66.27
2023-02-23T03:15:20.358Z,65.90
2023-02-23T03:20:47.166Z,66.35
2023-02-23T03:26:40.617Z,66.26
2023-02-23T03:32:18.994Z,66.14
2023-02-23T03:38:12.294Z,66.20
2023-02-23T03:43:37.877Z,66.27
2023-02-23T03:48:59.805Z,66.08
2023-02-23T03:54:28.006Z,66.28
2023-02-23T03:59:53.455Z,66.20
2023-02-23T04:05:16.713Z,66.24
2023-02-23T04:10:37.516Z,66.31
2023-02-23T04:15:48.723Z,66.27
2023-02-23T04:20:51.295Z,66.31
2023-02-23T04:25:53.806Z,65.99
2023-02-23T04:30:56.206Z,66.35
2023-02-23T04:35:58.327Z,66.24
2023-02-23T04:41:00.544Z,66.24
2023-02-23T04:46:02.724Z,66.47
2023-02-23T04:51:05.386Z,66.59
2023-02-23T04:56:07.902Z,66.56
2023-02-23T05:01:10.305Z,66.31
2023-02-23T05:06:12.991Z,66.31
2023-02-23T05:11:15.271Z,66.31
2023-02-23T05:16:17.699Z,66.45
2023-02-23T05:21:20.087Z,66.26
2023-02-23T05:26:22.441Z,66.52
2023-02-23T05:31:25.198Z,66.60
2023-02-23T05:36:27.772Z,66.40
2023-02-23T05:41:30.105Z,66.23
2023-02-23T05:46:32.414Z,66.35
2023-02-23T05:51:35.192Z,66.48
2023-02-23T05:56:37.451Z,66.35
2023-02-23T06:01:39.612Z,66.33
2023-02-23T06:06:45.060Z,66.51
2023-02-23T06:11:47.239Z,66.68
2023-02-23T06:16:49.469Z,66.53
2023-02-23T06:21:53.256Z,66.55
2023-02-23T06:26:55.926Z,66.94
2023-02-23T06:32:00.676Z,67.05
2023-02-23T06:37:03.562Z,67.09
2023-02-23T06:42:05.793Z,67.22
2023-02-23T06:47:07.980Z,67.54
2023-02-23T06:52:10.866Z,67.58
2023-02-23T06:57:13.085Z,67.84
2023-02-23T07:02:15.231Z,68.15
2023-02-23T07:07:17.445Z,68.37
2023-02-23T07:12:19.860Z,68.26
2023-02-23T07:17:22.247Z,68.39
2023-02-23T07:22:25.633Z,68.41
2023-02-23T07:27:27.937Z,68.55
2023-02-23T07:32:30.449Z,68.98
2023-02-23T07:37:32.835Z,67.66
2023-02-23T07:42:35.219Z,67.82
2023-02-23T07:47:39.898Z,67.42
2023-02-23T07:52:43.292Z,67.37
2023-02-23T07:57:45.564Z,66.79
2023-02-23T08:02:47.816Z,66.64
2023-02-23T08:07:50.148Z,66.55
2023-02-23T08:12:52.592Z,66.19
2023-02-23T08:17:54.845Z,66.11
2023-02-23T08:22:58.247Z,65.96
2023-02-23T08:28:04.868Z,65.77
2023-02-23T08:33:07.573Z,65.37
2023-02-23T08:38:09.869Z,65.04
2023-02-23T08:43:13.155Z,64.91
2023-02-23T08:48:15.355Z,65.20
2023-02-23T08:53:18.167Z,64.83
2023-02-23T08:58:20.401Z,64.19
2023-02-23T09:03:26.198Z,64.13
2023-02-23T09:08:55.594Z,63.98
2023-02-23T09:13:57.835Z,63.97
2023-02-23T09:19:01.581Z,63.66
2023-02-23T09:24:04.077Z,64.26
2023-02-23T09:29:07.640Z,64.14
2023-02-23T09:34:10.512Z,64.36
2023-02-23T09:39:12.777Z,64.12
2023-02-23T09:44:22.729Z,64.14
2023-02-23T09:49:28.967Z,63.92
2023-02-23T09:54:34.750Z,63.73
2023-02-23T09:59:37.235Z,63.66
2023-02-23T10:05:16.158Z,63.29
2023-02-23T10:10:37.089Z,63.16
2023-02-23T10:16:04.987Z,63.07
2023-02-23T10:21:18.008Z,62.56
2023-02-23T10:26:27.081Z,62.29
2023-02-23T10:31:58.005Z,61.45
2023-02-23T10:37:02.785Z,61.96
2023-02-23T10:42:08.084Z,61.59
2023-02-23T10:47:17.097Z,61.39
2023-02-23T10:52:24.209Z,61.72
2023-02-23T10:57:31.304Z,61.44
2023-02-23T11:02:36.699Z,61.54
2023-02-23T11:07:39.791Z,61.30
2023-02-23T11:12:42.169Z,61.10
2023-02-23T11:17:44.466Z,60.74
2023-02-23T11:22:47.112Z,60.79
2023-02-23T11:27:54.133Z,60.13
2023-02-23T11:32:58.788Z,59.65
2023-02-23T11:38:15.953Z,59.02
2023-02-23T11:43:21.108Z,59.56
2023-02-23T11:48:35.434Z,58.53
2023-02-23T11:53:41.068Z,58.94
2023-02-23T11:58:44.058Z,59.44
2023-02-23T12:03:58.201Z,58.98
2023-02-23T12:09:09.896Z,58.71
2023-02-23T12:14:23.854Z,58.74
2023-02-23T12:19:33.635Z,59.00
2023-02-23T12:24:41.700Z,58.92
2023-02-23T12:29:43.747Z,59.43
2023-02-23T12:35:21.202Z,58.96
2023-02-23T12:40:34.848Z,58.57
2023-02-23T12:46:14.231Z,59.04
2023-02-23T12:51:42.856Z,58.86
2023-02-23T12:57:06.500Z,58.98
2023-02-23T13:02:18.237Z,58.95
2023-02-23T13:07:20.459Z,59.24
2023-02-23T13:12:22.688Z,59.51
2023-02-23T13:17:36.342Z,59.10
2023-02-23T13:22:41.528Z,59.43
2023-02-23T13:27:49.647Z,59.36
2023-02-23T13:32:52.398Z,59.42
2023-02-23T13:38:19.665Z,59.38
2023-02-23T13:43:30.410Z,59.07
2023-02-23T13:48:44.430Z,59.53
2023-02-23T13:54:07.029Z,59.16
2023-02-23T13:59:16.054Z,59.50
2023-02-23T14:04:36.079Z,59.52
2023-02-23T14:09:43.309Z,59.81
2023-02-23T14:14:47.136Z,59.84
2023-02-23T14:20:17.906Z,59.78
2023-02-23T14:25:35.580Z,59.50
2023-02-23T14:30:51.401Z,59.72
2023-02-23T14:35:54.811Z,60.04
2023-02-23T14:40:57.291Z,59.96
2023-02-23T14:46:01.750Z,59.84
2023-02-23T14:51:16.932Z,59.89
2023-02-23T14:56:21.503Z,60.24
2023-02-23T15:01:43.046Z,60.17
2023-02-23T15:06:48.064Z,60.10
2023-02-23T15:11:54.333Z,60.45
2023-02-23T15:16:57.061Z,60.50
2023-02-23T15:22:00.957Z,60.49
2023-02-23T15:27:03.887Z,60.43
2023-02-23T15:32:18.991Z,60.32
2023-02-23T15:37:31.269Z,60.37
2023-02-23T15:42:39.381Z,60.36
2023-02-23T15:47:43.039Z,60.45
2023-02-23T15:52:48.919Z,60.69
2023-02-23T15:57:59.442Z,60.55
2023-02-23T16:03:03.238Z,60.82
2023-02-23T16:08:17.037Z,60.99
2023-02-23T16:13:22.085Z,61.09
2023-02-23T16:18:36.340Z,60.97
2023-02-23T16:23:46.041Z,60.86
2023-02-23T16:28:48.327Z,60.95
2023-02-23T16:33:57.359Z,61.16
2023-02-23T16:39:01.949Z,61.17
2023-02-23T16:44:06.362Z,61.10
2023-02-23T16:49:12.679Z,61.44
2023-02-23T16:54:15.218Z,61.27
2023-02-23T16:59:18.680Z,61.39
2023-02-23T17:04:21.398Z,61.64
2023-02-23T17:09:24.788Z,61.85
2023-02-23T17:14:32.734Z,61.96
2023-02-23T17:19:35.063Z,62.06
2023-02-23T17:24:49.590Z,61.81
2023-02-23T17:29:53.190Z,62.27
2023-02-23T17:34:55.548Z,62.09
2023-02-23T17:39:57.807Z,62.06
2023-02-23T17:45:04.109Z,62.21
2023-02-23T17:50:07.391Z,62.35
2023-02-23T17:55:10.433Z,62.33
2023-02-23T18:00:15.156Z,62.25
2023-02-23T18:05:21.409Z,62.17
2023-02-23T18:10:25.662Z,62.44
2023-02-23T18:15:28.112Z,62.25
2023-02-23T18:26:06.639Z,62.73
2023-02-23T18:31:10.204Z,62.54
2023-02-23T18:36:31.748Z,62.77
2023-02-23T18:41:42.122Z,62.96
2023-02-23T18:46:55.122Z,63.01
2023-02-23T18:51:59.401Z,62.86
2023-02-23T18:57:02.861Z,62.97
2023-02-23T19:02:06.432Z,63.17
2023-02-23T19:07:08.886Z,62.92
2023-02-23T19:12:12.114Z,63.16
2023-02-23T19:17:14.488Z,63.27
2023-02-23T19:22:22.378Z,63.09
2023-02-23T19:27:44.584Z,63.02
2023-02-23T19:32:47.912Z,63.09
2023-02-23T19:37:52.318Z,63.30
2023-02-23T19:42:54.612Z,63.15
2023-02-23T19:47:57.173Z,63.51
2023-02-23T19:52:59.588Z,63.53
2023-02-23T19:58:02.065Z,63.63
2023-02-23T20:03:07.702Z,63.59
2023-02-23T20:08:10.536Z,63.79
2023-02-23T20:13:12.852Z,63.75
2023-02-23T20:18:15.111Z,63.86
2023-02-23T20:23:17.850Z,64.00
2023-02-23T20:28:20.095Z,64.15
2023-02-23T20:33:22.354Z,64.13
2023-02-23T20:38:24.851Z,64.31
2023-02-23T20:43:27.116Z,64.22
2023-02-23T20:48:33.860Z,64.36
2023-02-23T20:53:36.250Z,64.54
2023-02-23T20:58:39.749Z,64.67
2023-02-23T21:03:42.041Z,64.59
2023-02-23T21:08:46.918Z,64.67
2023-02-23T21:13:49.347Z,64.57
2023-02-23T21:18:57.176Z,64.73
2023-02-23T21:23:59.424Z,64.72
2023-02-23T21:29:02.415Z,64.79
2023-02-23T21:34:06.622Z,64.91
2023-02-23T21:39:12.230Z,65.06
2023-02-23T21:44:14.403Z,64.87
2023-02-23T21:49:16.688Z,64.98
2023-02-23T21:54:18.789Z,64.93
2023-02-23T21:59:21.040Z,65.19
2023-02-23T22:04:24.492Z,65.22
2023-02-23T22:09:26.738Z,65.00
2023-02-23T22:14:28.867Z,65.30
2023-02-23T22:19:31.068Z,65.20
2023-02-23T22:24:33.224Z,65.31
2023-02-23T22:29:35.451Z,65.27
2023-02-23T22:34:38.192Z,64.97
2023-02-23T22:39:43.241Z,65.16
2023-02-23T22:44:45.587Z,65.23
2023-02-23T22:49:47.984Z,65.56
2023-02-23T22:54:51.520Z,65.39
2023-02-23T23:00:00.800Z,65.27
2023-02-23T23:05:04.252Z,65.49
2023-02-23T23:10:09.581Z,65.63
2023-02-23T23:15:15.232Z,65.34
2023-02-23T23:20:23.100Z,65.53
2023-02-23T23:25:26.111Z,65.74
2023-02-23T23:30:38.404Z,65.73
2023-02-23T23:35:42.893Z,65.60
2023-02-23T23:40:47.126Z,65.62
2023-02-23T23:45:51.965Z,65.58
2023-02-23T23:50:56.419Z,65.52
2023-02-23T23:56:04.486Z,65.70
